createdAt,value
2018-04-29T00:02:21.975Z,99.90
2018-04-29T00:04:49.408Z,99.90
2018-04-29T00:07:17.624Z,99.90
2018-04-29T00:09:45.051Z,99.90
2018-04-29T00:12:12.483Z,99.90
2018-04-29T00:14:39.910Z,99.90
2018-04-29T00:17:07.360Z,99.90
2018-04-29T00:19:35.687Z,99.90
2018-04-29T00:22:03.902Z,99.90
2018-04-29T00:24:31.340Z,99.90
2018-04-29T00:26:58.774Z,99.90
2018-04-29T00:29:26.967Z,99.90
2018-04-29T00:31:54.410Z,99.90
2018-04-29T00:34:22.605Z,99.90
2018-04-29T00:36:50.036Z,99.90
2018-04-29T00:39:18.247Z,99.90
2018-04-29T00:41:45.706Z,99.90
2018-04-29T00:44:13.126Z,99.90
2018-04-29T00:46:41.438Z,99.90
2018-04-29T00:49:08.854Z,99.90
2018-04-29T00:51:49.060Z,99.90
2018-04-29T00:54:16.483Z,99.90
2018-04-29T00:56:43.914Z,99.90
2018-04-29T00:59:11.339Z,99.90
2018-04-29T01:01:38.779Z,99.90
2018-04-29T01:04:06.216Z,99.90
2018-04-29T01:06:34.402Z,99.90
2018-04-29T01:09:01.841Z,99.90
2018-04-29T01:11:30.058Z,99.90
2018-04-29T01:13:57.507Z,99.90
2018-04-29T01:16:24.945Z,99.90
2018-04-29T01:18:52.428Z,99.90
2018-04-29T01:21:19.855Z,99.90
2018-04-29T01:23:47.294Z,99.90
2018-04-29T01:26:15.502Z,99.90
2018-04-29T01:28:42.923Z,99.90
2018-04-29T01:31:11.134Z,99.90
2018-04-29T01:33:38.565Z,99.90
2018-04-29T01:36:07.479Z,99.90
2018-04-29T01:41:26.251Z,99.90
2018-04-29T01:43:53.671Z,99.90
2018-04-29T01:46:21.863Z,99.90
2018-04-29T01:48:49.302Z,99.90
2018-04-29T01:51:17.515Z,99.90
2018-04-29T01:53:44.960Z,99.90
2018-04-29T01:56:12.415Z,99.90
2018-04-29T01:58:39.839Z,99.90
2018-04-29T02:01:07.267Z,99.90
2018-04-29T02:03:34.706Z,99.90
2018-04-29T02:06:02.127Z,99.90
2018-04-29T02:08:30.331Z,99.90
2018-04-29T02:10:57.754Z,99.90
2018-04-29T02:13:25.950Z,99.90
2018-04-29T02:15:53.387Z,99.90
2018-04-29T02:18:21.579Z,99.90
2018-04-29T02:20:49.004Z,99.90
2018-04-29T02:23:16.455Z,99.90
2018-04-29T02:25:45.386Z,99.90
2018-04-29T02:28:12.826Z,99.90
2018-04-29T02:30:41.020Z,99.90
2018-04-29T02:33:08.463Z,99.90
2018-04-29T02:35:36.651Z,99.90
2018-04-29T02:38:04.083Z,99.90
2018-04-29T02:40:32.273Z,99.90
2018-04-29T02:42:59.715Z,99.90
2018-04-29T02:45:27.946Z,99.90
2018-04-29T02:47:55.386Z,99.90
2018-04-29T02:50:22.819Z,99.90
2018-04-29T02:52:50.249Z,99.90
2018-04-29T02:55:17.686Z,99.90
2018-04-29T02:57:45.199Z,99.90
2018-04-29T03:00:12.584Z,99.90
2018-04-29T03:02:40.035Z,99.90
2018-04-29T03:05:07.505Z,99.90
2018-04-29T03:07:34.936Z,99.90
2018-04-29T03:10:02.356Z,99.90
2018-04-29T03:12:30.550Z,99.90
2018-04-29T03:14:57.975Z,99.90
2018-04-29T03:17:25.428Z,99.90
2018-04-29T03:19:52.856Z,99.90
2018-04-29T03:22:20.283Z,99.90
2018-04-29T03:24:47.722Z,99.90
2018-04-29T03:27:15.915Z,99.90
2018-04-29T03:29:43.344Z,99.90
2018-04-29T03:32:11.539Z,99.90
2018-04-29T03:34:38.973Z,99.90
2018-04-29T03:37:07.395Z,99.90
2018-04-29T03:39:34.820Z,99.90
2018-04-29T03:42:03.012Z,99.90
2018-04-29T03:44:30.441Z,99.90
2018-04-29T03:46:57.872Z,99.90
2018-04-29T03:49:25.313Z,99.90
2018-04-29T03:51:52.734Z,99.90
2018-04-29T03:54:20.177Z,99.90
2018-04-29T03:56:48.368Z,99.90
2018-04-29T03:59:28.629Z,99.90
2018-04-29T04:02:08.015Z,99.90
2018-04-29T04:04:35.447Z,99.90
2018-04-29T04:07:02.871Z,99.90
2018-04-29T04:09:30.304Z,99.90
2018-04-29T04:11:57.727Z,99.90
2018-04-29T04:14:25.163Z,99.90
2018-04-29T04:16:52.582Z,99.90
2018-04-29T04:19:20.791Z,99.90
2018-04-29T04:21:48.209Z,99.90
2018-04-29T04:24:16.419Z,99.90
2018-04-29T04:26:43.851Z,99.90
2018-04-29T04:29:12.052Z,99.90
2018-04-29T04:31:39.476Z,99.90
2018-04-29T04:34:07.773Z,99.90
2018-04-29T04:36:35.107Z,99.90
2018-04-29T04:39:03.294Z,99.90
2018-04-29T04:41:31.487Z,99.90
2018-04-29T04:43:58.915Z,99.90
2018-04-29T04:46:27.119Z,99.90
2018-04-29T04:48:54.540Z,99.90
2018-04-29T04:51:22.736Z,99.90
2018-04-29T04:53:50.219Z,99.90
2018-04-29T04:56:17.640Z,99.90
2018-04-29T04:58:45.859Z,99.90
2018-04-29T05:01:13.289Z,99.90
2018-04-29T05:03:40.716Z,99.90
2018-04-29T05:06:08.163Z,99.90
2018-04-29T05:08:35.589Z,99.90
2018-04-29T05:11:03.048Z,99.90
2018-04-29T05:13:30.476Z,99.90
2018-04-29T05:15:57.914Z,99.90
2018-04-29T05:18:26.099Z,99.90
2018-04-29T05:20:53.543Z,99.90
2018-04-29T05:23:21.753Z,99.90
2018-04-29T05:25:49.187Z,99.90
2018-04-29T05:28:16.622Z,99.90
2018-04-29T05:30:44.078Z,99.90
2018-04-29T05:33:13.294Z,99.90
2018-04-29T05:35:41.499Z,99.90
2018-04-29T05:38:08.927Z,99.90
2018-04-29T05:40:37.131Z,99.90
2018-04-29T05:43:04.556Z,99.90
2018-04-29T05:45:32.759Z,99.90
2018-04-29T05:48:00.194Z,99.90
2018-04-29T05:50:27.626Z,99.90
2018-04-29T05:52:55.108Z,99.90
2018-04-29T05:55:22.548Z,99.90
2018-04-29T05:57:50.735Z,99.90
2018-04-29T06:00:18.929Z,99.90
2018-04-29T06:02:46.356Z,99.90
2018-04-29T06:05:14.598Z,99.90
2018-04-29T06:07:43.631Z,99.90
2018-04-29T06:10:11.822Z,99.90
2018-04-29T06:12:39.313Z,99.90
2018-04-29T06:15:06.767Z,99.90
2018-04-29T06:17:34.194Z,99.90
2018-04-29T06:20:01.675Z,99.90
2018-04-29T06:22:29.143Z,99.90
2018-04-29T06:24:56.573Z,99.90
2018-04-29T06:27:24.000Z,99.90
2018-04-29T06:29:52.214Z,99.90
2018-04-29T06:32:19.659Z,99.90
2018-04-29T06:34:47.102Z,99.90
2018-04-29T06:37:15.300Z,99.90
2018-04-29T06:39:42.726Z,99.90
2018-04-29T06:42:10.918Z,99.90
2018-04-29T06:44:38.351Z,99.90
2018-04-29T06:47:06.563Z,99.90
2018-04-29T06:49:33.983Z,99.90
2018-04-29T06:52:02.187Z,99.90
2018-04-29T06:54:29.620Z,99.90
2018-04-29T06:56:57.826Z,99.90
2018-04-29T06:59:25.253Z,99.90
2018-04-29T07:01:53.447Z,99.90
2018-04-29T07:04:20.866Z,99.90
2018-04-29T07:06:48.308Z,99.90
2018-04-29T07:09:17.245Z,99.90
2018-04-29T07:11:44.688Z,99.90
2018-04-29T07:14:12.186Z,99.90
2018-04-29T07:16:39.553Z,99.90
2018-04-29T07:19:06.980Z,99.90
2018-04-29T07:21:34.407Z,99.90
2018-04-29T07:24:02.604Z,99.90
2018-04-29T07:26:30.790Z,99.90
2018-04-29T07:28:58.989Z,99.90
2018-04-29T07:31:26.442Z,99.90
2018-04-29T07:33:53.880Z,99.90
2018-04-29T07:36:21.308Z,99.90
2018-04-29T07:38:49.512Z,99.90
2018-04-29T07:41:17.043Z,99.90
2018-04-29T07:43:45.257Z,99.90
2018-04-29T07:46:12.683Z,99.90
2018-04-29T07:48:40.116Z,99.90
2018-04-29T07:51:07.548Z,99.90
2018-04-29T07:53:34.973Z,99.90
2018-04-29T07:56:02.407Z,99.90
2018-04-29T07:58:30.630Z,99.90
2018-04-29T08:00:58.067Z,99.90
2018-04-29T08:03:25.541Z,99.90
2018-04-29T08:05:52.991Z,99.90
2018-04-29T08:08:20.424Z,99.90
2018-04-29T08:10:47.856Z,99.90
2018-04-29T08:13:16.365Z,99.90
2018-04-29T08:15:43.820Z,99.90
2018-04-29T08:18:12.005Z,99.90
2018-04-29T08:20:39.448Z,99.90
2018-04-29T08:23:06.896Z,99.90
2018-04-29T08:25:35.099Z,99.90
2018-04-29T08:28:02.548Z,99.90
2018-04-29T08:30:29.978Z,99.90
2018-04-29T08:32:58.180Z,99.90
2018-04-29T08:35:26.552Z,99.90
2018-04-29T08:37:53.990Z,99.90
2018-04-29T08:40:22.187Z,99.90
2018-04-29T08:42:50.417Z,99.90
2018-04-29T08:45:18.612Z,99.90
2018-04-29T08:47:46.823Z,99.90
2018-04-29T08:50:14.354Z,99.90
2018-04-29T08:52:41.712Z,99.90
2018-04-29T08:55:09.159Z,99.90
2018-04-29T08:57:37.351Z,99.90
2018-04-29T09:00:04.789Z,99.90
2018-04-29T09:02:32.995Z,99.90
2018-04-29T09:05:00.439Z,99.90
2018-04-29T09:07:27.875Z,99.90
2018-04-29T09:09:56.085Z,99.90
2018-04-29T09:12:23.520Z,99.90
2018-04-29T09:14:51.707Z,99.90
2018-04-29T09:17:19.189Z,99.90
2018-04-29T09:19:46.640Z,99.90
2018-04-29T09:22:14.087Z,99.90
2018-04-29T09:24:41.528Z,99.90
2018-04-29T09:27:08.980Z,99.90
2018-04-29T09:29:36.403Z,99.90
2018-04-29T09:32:03.844Z,99.90
2018-04-29T09:34:31.271Z,99.90
2018-04-29T09:36:58.724Z,99.90
2018-04-29T09:39:26.913Z,99.90
2018-04-29T09:41:54.342Z,99.90
2018-04-29T09:44:21.771Z,99.90
2018-04-29T09:46:49.201Z,99.90
2018-04-29T09:49:16.643Z,99.90
2018-04-29T09:51:44.079Z,99.90
2018-04-29T09:54:11.508Z,99.90
2018-04-29T09:56:39.697Z,99.90
2018-04-29T09:59:07.127Z,99.90
2018-04-29T10:01:35.322Z,99.90
2018-04-29T10:04:03.524Z,99.90
2018-04-29T10:06:30.983Z,99.90
2018-04-29T10:08:58.447Z,99.90
2018-04-29T10:11:25.901Z,99.90
2018-04-29T10:13:53.340Z,99.90
2018-04-29T10:16:20.769Z,99.90
2018-04-29T10:18:49.007Z,99.90
2018-04-29T10:21:16.430Z,99.90
2018-04-29T10:23:43.883Z,99.90
2018-04-29T10:26:11.323Z,99.90
2018-04-29T10:28:39.538Z,99.90
2018-04-29T10:31:06.967Z,99.90
2018-04-29T10:33:34.392Z,99.90
2018-04-29T10:36:01.811Z,99.90
2018-04-29T10:38:29.268Z,99.90
2018-04-29T10:40:56.732Z,99.90
2018-04-29T10:43:24.128Z,99.90
2018-04-29T10:45:55.278Z,99.90
2018-04-29T10:48:23.476Z,99.90
2018-04-29T10:50:50.925Z,99.90
2018-04-29T10:53:18.424Z,99.90
2018-04-29T10:55:46.335Z,99.90
2018-04-29T10:58:14.540Z,99.90
2018-04-29T11:00:41.972Z,99.90
2018-04-29T11:03:10.164Z,99.90
2018-04-29T11:05:37.592Z,99.90
2018-04-29T11:08:05.025Z,99.90
2018-04-29T11:10:32.448Z,99.90
2018-04-29T11:12:59.880Z,99.90
2018-04-29T11:15:27.311Z,99.90
2018-04-29T11:17:54.747Z,99.90
2018-04-29T11:20:22.188Z,99.90
2018-04-29T11:22:49.619Z,99.90
2018-04-29T11:25:17.048Z,99.90
2018-04-29T11:27:45.248Z,99.90
2018-04-29T11:30:12.684Z,99.90
2018-04-29T11:32:40.888Z,99.90
2018-04-29T11:35:08.372Z,99.90
2018-04-29T11:37:35.811Z,99.90
2018-04-29T11:40:03.254Z,99.90
2018-04-29T11:42:48.446Z,99.90
2018-04-29T11:45:15.889Z,99.90
2018-04-29T11:47:43.338Z,99.90
2018-04-29T11:50:10.833Z,99.90
2018-04-29T11:52:38.261Z,99.90
2018-04-29T11:55:06.496Z,99.90
2018-04-29T11:57:33.944Z,99.90
2018-04-29T12:00:01.376Z,99.90
2018-04-29T12:02:28.831Z,99.90
2018-04-29T12:04:56.264Z,99.90
2018-04-29T12:07:23.709Z,99.90
2018-04-29T12:09:51.956Z,99.90
2018-04-29T12:12:19.329Z,99.90
2018-04-29T12:14:47.542Z,99.90
2018-04-29T12:17:14.985Z,99.90
2018-04-29T12:19:42.433Z,99.90
2018-04-29T12:22:09.892Z,99.80
2018-04-29T12:24:37.349Z,99.90
2018-04-29T12:27:05.528Z,99.90
2018-04-29T12:29:32.984Z,99.90
2018-04-29T12:32:00.418Z,99.90
2018-04-29T12:34:28.625Z,98.00
2018-04-29T12:36:56.053Z,97.90
2018-04-29T12:39:24.272Z,98.50
2018-04-29T12:41:51.706Z,98.40
2018-04-29T12:44:19.170Z,98.30
2018-04-29T12:46:46.683Z,98.50
2018-04-29T12:49:14.103Z,97.90
2018-04-29T12:51:41.537Z,98.10
2018-04-29T12:54:08.965Z,98.00
2018-04-29T12:56:37.174Z,97.20
2018-04-29T12:59:04.616Z,97.20
2018-04-29T13:01:34.320Z,96.40
2018-04-29T13:04:01.780Z,96.40
2018-04-29T13:06:29.212Z,97.90
2018-04-29T13:08:57.408Z,98.20
2018-04-29T13:11:24.843Z,98.20
2018-04-29T13:13:52.288Z,96.50
2018-04-29T13:16:19.729Z,95.40
2018-04-29T13:18:47.177Z,96.80
2018-04-29T13:21:14.607Z,94.90
2018-04-29T13:23:43.401Z,95.40
2018-04-29T13:26:10.845Z,95.10
2018-04-29T13:28:38.279Z,95.40
2018-04-29T13:31:06.475Z,94.40
2018-04-29T13:33:33.921Z,94.30
2018-04-29T13:36:02.173Z,93.20
2018-04-29T13:38:29.571Z,93.00
2018-04-29T13:40:57.007Z,91.80
2018-04-29T13:43:25.197Z,92.10
2018-04-29T13:45:53.509Z,92.50
2018-04-29T13:48:20.944Z,92.40
2018-04-29T13:50:48.386Z,92.20
2018-04-29T13:53:15.830Z,91.40
2018-04-29T13:55:44.027Z,90.00
2018-04-29T13:58:11.461Z,90.00
2018-04-29T14:00:39.683Z,88.70
2018-04-29T14:03:07.111Z,88.70
2018-04-29T14:05:34.557Z,86.70
2018-04-29T14:08:03.621Z,87.40
2018-04-29T14:10:31.128Z,87.30
2018-04-29T14:12:58.545Z,85.20
2018-04-29T14:15:25.937Z,87.80
2018-04-29T14:17:53.392Z,86.10
2018-04-29T14:20:20.829Z,83.00
2018-04-29T14:22:49.056Z,81.30
2018-04-29T14:25:16.517Z,81.30
2018-04-29T14:27:43.957Z,80.60
2018-04-29T14:30:11.398Z,81.30
2018-04-29T14:32:38.905Z,81.50
2018-04-29T14:35:06.359Z,81.40
2018-04-29T14:37:33.808Z,81.40
2018-04-29T14:40:01.263Z,82.50
2018-04-29T14:42:28.693Z,82.00
2018-04-29T14:44:56.120Z,82.40
2018-04-29T14:47:24.336Z,83.10
2018-04-29T14:49:51.780Z,82.70
2018-04-29T14:52:25.717Z,84.00
2018-04-29T14:54:53.139Z,82.90
2018-04-29T14:57:20.600Z,84.40
2018-04-29T14:59:48.039Z,83.80
2018-04-29T15:02:16.250Z,85.50
2018-04-29T15:04:43.688Z,85.50
2018-04-29T15:07:11.123Z,84.40
2018-04-29T15:09:39.325Z,84.40
2018-04-29T15:12:06.765Z,84.30
2018-04-29T15:14:34.208Z,83.60
2018-04-29T15:17:02.425Z,83.40
2018-04-29T15:19:41.832Z,83.40
2018-04-29T15:22:09.265Z,84.40
2018-04-29T15:24:37.604Z,83.00
2018-04-29T15:27:05.061Z,83.10
2018-04-29T15:29:32.528Z,82.70
2018-04-29T15:31:59.959Z,84.40
2018-04-29T15:34:27.392Z,84.80
2018-04-29T15:36:54.847Z,83.50
2018-04-29T15:39:22.297Z,82.50
2018-04-29T15:41:50.521Z,83.80
2018-04-29T15:44:17.975Z,83.90
2018-04-29T15:46:45.416Z,84.70
2018-04-29T15:49:12.863Z,86.10
2018-04-29T15:51:40.297Z,83.70
2018-04-29T15:54:08.484Z,84.40
2018-04-29T15:56:36.010Z,84.20
2018-04-29T15:59:03.440Z,84.70
2018-04-29T16:01:30.888Z,84.70
2018-04-29T16:03:58.332Z,85.30
2018-04-29T16:06:25.772Z,85.70
2018-04-29T16:08:53.213Z,85.30
2018-04-29T16:11:21.439Z,86.20
2018-04-29T16:13:59.160Z,86.20
2018-04-29T16:16:26.616Z,87.70
2018-04-29T16:18:54.052Z,86.50
2018-04-29T16:21:21.494Z,88.70
2018-04-29T16:23:48.947Z,87.50
2018-04-29T16:26:16.365Z,86.50
2018-04-29T16:28:44.583Z,86.80
2018-04-29T16:31:13.433Z,88.20
2018-04-29T16:33:40.817Z,88.10
2018-04-29T16:36:08.234Z,87.70
2018-04-29T16:38:35.684Z,88.20
2018-04-29T16:41:03.109Z,89.90
2018-04-29T16:43:30.558Z,89.80
2018-04-29T16:45:57.993Z,89.30
2018-04-29T16:48:25.451Z,88.40
2018-04-29T16:50:52.893Z,88.90
2018-04-29T16:53:21.115Z,88.60
2018-04-29T16:55:48.544Z,88.40
2018-04-29T16:58:16.048Z,89.00
2018-04-29T17:00:43.489Z,90.00
2018-04-29T17:03:10.926Z,89.40
2018-04-29T17:05:38.356Z,90.20
2018-04-29T17:08:06.566Z,90.30
2018-04-29T17:10:33.997Z,90.30
2018-04-29T17:13:02.216Z,90.90
2018-04-29T17:15:29.648Z,90.90
2018-04-29T17:17:57.090Z,90.90
2018-04-29T17:20:24.519Z,91.40
2018-04-29T17:22:52.762Z,91.50
2018-04-29T17:25:20.171Z,91.10
2018-04-29T17:27:47.620Z,91.70
2018-04-29T17:30:15.827Z,91.20
2018-04-29T17:32:43.421Z,91.20
2018-04-29T17:35:10.949Z,91.40
2018-04-29T17:37:38.413Z,91.40
2018-04-29T17:40:05.842Z,91.50
2018-04-29T17:42:33.340Z,91.40
2018-04-29T17:45:00.774Z,91.20
2018-04-29T17:47:28.223Z,91.30
2018-04-29T17:49:55.658Z,91.60
2018-04-29T17:52:23.906Z,92.10
2018-04-29T17:54:51.340Z,92.20
2018-04-29T17:57:18.809Z,92.00
2018-04-29T17:59:46.245Z,91.90
2018-04-29T18:02:13.672Z,92.50
2018-04-29T18:04:41.132Z,92.60
2018-04-29T18:07:08.582Z,92.40
2018-04-29T18:09:36.785Z,92.80
2018-04-29T18:12:04.219Z,92.80
2018-04-29T18:14:31.726Z,92.90
2018-04-29T18:16:59.151Z,92.90
2018-04-29T18:19:26.605Z,93.40
2018-04-29T18:21:54.051Z,93.50
2018-04-29T18:24:21.480Z,94.80
2018-04-29T18:26:49.721Z,95.30
2018-04-29T18:29:17.176Z,95.30
2018-04-29T18:31:44.633Z,96.30
2018-04-29T18:34:13.307Z,96.40
2018-04-29T18:36:40.743Z,96.40
2018-04-29T18:39:08.193Z,96.10
2018-04-29T18:41:36.396Z,97.10
2018-04-29T18:44:03.846Z,97.10
2018-04-29T18:46:31.281Z,97.20
2018-04-29T18:48:58.772Z,97.50
2018-04-29T18:51:26.282Z,97.30
2018-04-29T18:53:53.717Z,97.50
2018-04-29T18:56:27.310Z,98.90
2018-04-29T18:58:54.791Z,99.10
2018-04-29T19:01:22.238Z,99.50
2018-04-29T19:03:51.238Z,99.90
2018-04-29T19:06:18.692Z,99.90
2018-04-29T19:08:46.170Z,99.90
2018-04-29T19:11:14.400Z,99.90
2018-04-29T19:13:41.856Z,99.90
2018-04-29T19:16:09.315Z,99.90
2018-04-29T19:18:36.768Z,99.90
2018-04-29T19:21:04.234Z,99.90
2018-04-29T19:23:31.763Z,99.90
2018-04-29T19:25:59.207Z,99.90
2018-04-29T19:28:26.661Z,99.90
2018-04-29T19:30:54.088Z,99.90
2018-04-29T19:33:21.542Z,99.90
2018-04-29T19:35:49.035Z,99.90
2018-04-29T19:38:16.414Z,99.90
2018-04-29T19:40:45.290Z,99.90
2018-04-29T19:43:12.729Z,99.90
2018-04-29T19:45:40.928Z,99.90
2018-04-29T19:48:08.356Z,99.90
2018-04-29T19:50:36.574Z,99.90
2018-04-29T19:53:04.007Z,99.90
2018-04-29T19:55:31.447Z,99.90
2018-04-29T19:57:58.881Z,99.90
2018-04-29T20:00:27.099Z,99.90
2018-04-29T20:02:56.115Z,99.90
2018-04-29T20:05:23.947Z,99.90
2018-04-29T20:07:52.131Z,99.90
2018-04-29T20:10:19.622Z,99.90
2018-04-29T20:12:47.068Z,99.90
2018-04-29T20:15:14.519Z,99.90
2018-04-29T20:17:41.949Z,99.90
2018-04-29T20:20:09.395Z,99.90
2018-04-29T20:22:37.597Z,99.90
2018-04-29T20:25:06.382Z,99.90
2018-04-29T20:27:33.816Z,99.90
2018-04-29T20:30:02.049Z,99.90
2018-04-29T20:32:54.280Z,99.90
2018-04-29T20:35:21.753Z,99.90
2018-04-29T20:37:49.202Z,99.90
2018-04-29T20:40:16.636Z,99.90
2018-04-29T20:42:44.066Z,99.90
2018-04-29T20:45:11.508Z,99.90
2018-04-29T20:47:39.709Z,99.90
2018-04-29T20:50:07.141Z,99.90
2018-04-29T20:52:35.348Z,99.90
2018-04-29T20:55:02.796Z,99.90
2018-04-29T20:57:30.236Z,99.90
2018-04-29T20:59:58.451Z,99.90
2018-04-29T21:02:25.924Z,99.90
2018-04-29T21:04:53.364Z,99.90
2018-04-29T21:07:20.795Z,99.90
2018-04-29T21:09:48.235Z,99.90
2018-04-29T21:12:16.439Z,99.90
2018-04-29T21:14:43.880Z,99.90
2018-04-29T21:17:11.375Z,99.90
2018-04-29T21:19:39.537Z,99.90
2018-04-29T21:22:06.975Z,99.90
2018-04-29T21:24:34.403Z,99.90
2018-04-29T21:27:02.615Z,99.90
2018-04-29T21:29:30.052Z,99.90
2018-04-29T21:31:57.521Z,99.90
2018-04-29T21:34:24.967Z,99.90
2018-04-29T21:36:53.204Z,99.90
2018-04-29T21:39:22.150Z,99.90
2018-04-29T21:41:49.587Z,99.90
2018-04-29T21:44:17.795Z,99.90
2018-04-29T21:46:45.235Z,99.90
2018-04-29T21:49:12.672Z,99.90
2018-04-29T21:51:40.892Z,99.90
2018-04-29T21:54:08.330Z,99.90
2018-04-29T21:56:35.907Z,99.90
2018-04-29T21:59:03.352Z,99.90
2018-04-29T22:01:30.786Z,99.90
2018-04-29T22:03:58.225Z,99.90
2018-04-29T22:06:25.680Z,99.90
2018-04-29T22:08:53.908Z,99.90
2018-04-29T22:11:21.337Z,99.90
2018-04-29T22:13:48.769Z,99.90
2018-04-29T22:16:17.014Z,99.90
2018-04-29T22:18:44.457Z,99.90
2018-04-29T22:21:12.684Z,99.90
2018-04-29T22:23:40.885Z,99.90
2018-04-29T22:26:08.328Z,99.90
2018-04-29T22:28:36.525Z,99.90
2018-04-29T22:31:03.990Z,99.90
2018-04-29T22:33:31.421Z,99.90
2018-04-29T22:35:58.868Z,99.90
2018-04-29T22:38:27.089Z,99.90
2018-04-29T22:40:54.530Z,99.90
2018-04-29T22:43:21.962Z,99.90
2018-04-29T22:45:50.180Z,99.90
2018-04-29T22:48:17.612Z,99.90
2018-04-29T22:50:45.055Z,99.90
2018-04-29T22:53:12.532Z,99.90
2018-04-29T22:55:39.974Z,99.90
2018-04-29T22:58:07.404Z,99.90
2018-04-29T23:00:35.612Z,99.90
2018-04-29T23:03:03.097Z,99.90
2018-04-29T23:05:30.523Z,99.90
2018-04-29T23:07:57.972Z,99.90
2018-04-29T23:10:25.579Z,99.90
2018-04-29T23:12:53.039Z,99.90
2018-04-29T23:15:20.476Z,99.90
2018-04-29T23:17:47.926Z,99.90
2018-04-29T23:20:15.369Z,99.90
2018-04-29T23:22:42.799Z,99.90
2018-04-29T23:25:11.000Z,99.90
2018-04-29T23:27:38.438Z,99.90
2018-04-29T23:30:06.646Z,99.90
2018-04-29T23:32:36.356Z,99.90
2018-04-29T23:35:03.784Z,99.90
2018-04-29T23:37:31.986Z,99.90
2018-04-29T23:39:59.413Z,99.90
2018-04-29T23:42:28.572Z,99.90
2018-04-29T23:44:56.013Z,99.90
2018-04-29T23:47:23.445Z,99.90
2018-04-29T23:49:50.873Z,99.90
2018-04-29T23:52:19.125Z,99.90
2018-04-29T23:54:46.585Z,99.90
2018-04-29T23:57:14.024Z,99.90
2018-04-29T23:59:41.459Z,99.90
